sensor_id;sensor_type;location;lat;lon;timestamp;P1;durP1;ratioP1;P2;durP2;ratioP2
58310;SDS011;45001;52.218;5.154;2022-08-19T00:01:16;2.10;;;1.73;;
58310;SDS011;45001;52.218;5.154;2022-08-19T00:03:41;2.55;;;1.65;;
58310;SDS011;45001;52.218;5.154;2022-08-19T00:06:07;2.10;;;1.63;;
58310;SDS011;45001;52.218;5.154;2022-08-19T00:08:32;4.18;;;2.20;;
58310;SDS011;45001;52.218;5.154;2022-08-19T00:10:57;2.20;;;1.77;;
58310;SDS011;45001;52.218;5.154;2022-08-19T00:13:23;1.90;;;1.67;;
58310;SDS011;45001;52.218;5.154;2022-08-19T00:15:48;2.10;;;1.77;;
58310;SDS011;45001;52.218;5.154;2022-08-19T00:18:13;2.28;;;1.83;;
58310;SDS011;45001;52.218;5.154;2022-08-19T00:20:38;2.78;;;1.90;;
58310;SDS011;45001;52.218;5.154;2022-08-19T00:23:05;2.20;;;1.38;;
58310;SDS011;45001;52.218;5.154;2022-08-19T00:25:31;2.25;;;1.63;;
58310;SDS011;45001;52.218;5.154;2022-08-19T00:27:56;2.15;;;1.70;;
58310;SDS011;45001;52.218;5.154;2022-08-19T00:30:21;2.65;;;1.60;;
58310;SDS011;45001;52.218;5.154;2022-08-19T00:32:47;2.53;;;1.80;;
58310;SDS011;45001;52.218;5.154;2022-08-19T00:35:12;4.57;;;1.83;;
58310;SDS011;45001;52.218;5.154;2022-08-19T00:37:38;3.10;;;1.70;;
58310;SDS011;45001;52.218;5.154;2022-08-19T00:40:08;2.03;;;1.60;;
58310;SDS011;45001;52.218;5.154;2022-08-19T00:42:35;2.67;;;1.80;;
58310;SDS011;45001;52.218;5.154;2022-08-19T00:45:00;3.65;;;1.88;;
58310;SDS011;45001;52.218;5.154;2022-08-19T00:47:25;2.15;;;1.80;;
58310;SDS011;45001;52.218;5.154;2022-08-19T00:49:52;2.45;;;1.88;;
58310;SDS011;45001;52.218;5.154;2022-08-19T00:54:48;2.40;;;1.77;;
58310;SDS011;45001;52.218;5.154;2022-08-19T00:57:15;2.60;;;2.00;;
58310;SDS011;45001;52.218;5.154;2022-08-19T00:59:45;2.88;;;1.75;;
58310;SDS011;45001;52.218;5.154;2022-08-19T01:04:38;2.67;;;1.80;;
58310;SDS011;45001;52.218;5.154;2022-08-19T01:07:04;1.83;;;1.40;;
58310;SDS011;45001;52.218;5.154;2022-08-19T01:09:29;2.28;;;1.73;;
58310;SDS011;45001;52.218;5.154;2022-08-19T01:11:55;2.17;;;1.50;;
58310;SDS011;45001;52.218;5.154;2022-08-19T01:14:21;2.22;;;1.67;;
58310;SDS011;45001;52.218;5.154;2022-08-19T01:16:47;2.53;;;1.95;;
58310;SDS011;45001;52.218;5.154;2022-08-19T01:19:17;2.67;;;1.92;;
58310;SDS011;45001;52.218;5.154;2022-08-19T01:21:52;2.08;;;1.67;;
58310;SDS011;45001;52.218;5.154;2022-08-19T01:24:23;2.03;;;1.77;;
58310;SDS011;45001;52.218;5.154;2022-08-19T01:26:48;3.05;;;2.20;;
58310;SDS011;45001;52.218;5.154;2022-08-19T01:29:14;2.72;;;1.80;;
58310;SDS011;45001;52.218;5.154;2022-08-19T01:31:40;2.53;;;2.13;;
58310;SDS011;45001;52.218;5.154;2022-08-19T01:34:06;1.95;;;1.63;;
58310;SDS011;45001;52.218;5.154;2022-08-19T01:36:33;2.00;;;1.77;;
58310;SDS011;45001;52.218;5.154;2022-08-19T01:39:06;2.65;;;1.90;;
58310;SDS011;45001;52.218;5.154;2022-08-19T01:41:34;2.38;;;1.73;;
58310;SDS011;45001;52.218;5.154;2022-08-19T01:44:00;2.00;;;1.67;;
58310;SDS011;45001;52.218;5.154;2022-08-19T01:46:28;1.87;;;1.63;;
58310;SDS011;45001;52.218;5.154;2022-08-19T01:48:54;2.25;;;1.70;;
58310;SDS011;45001;52.218;5.154;2022-08-19T01:51:19;2.15;;;1.77;;
58310;SDS011;45001;52.218;5.154;2022-08-19T01:53:46;2.05;;;1.80;;
58310;SDS011;45001;52.218;5.154;2022-08-19T01:56:13;2.40;;;1.90;;
58310;SDS011;45001;52.218;5.154;2022-08-19T01:58:40;1.73;;;1.48;;
58310;SDS011;45001;52.218;5.154;2022-08-19T02:01:10;2.30;;;1.73;;
58310;SDS011;45001;52.218;5.154;2022-08-19T02:03:36;1.92;;;1.70;;
58310;SDS011;45001;52.218;5.154;2022-08-19T02:06:02;1.75;;;1.63;;
58310;SDS011;45001;52.218;5.154;2022-08-19T02:08:30;2.10;;;1.80;;
58310;SDS011;45001;52.218;5.154;2022-08-19T02:10:57;2.50;;;1.70;;
58310;SDS011;45001;52.218;5.154;2022-08-19T02:13:22;2.20;;;1.90;;
58310;SDS011;45001;52.218;5.154;2022-08-19T02:15:48;2.63;;;1.75;;
58310;SDS011;45001;52.218;5.154;2022-08-19T02:18:14;2.50;;;1.77;;
58310;SDS011;45001;52.218;5.154;2022-08-19T02:20:40;2.50;;;1.92;;
58310;SDS011;45001;52.218;5.154;2022-08-19T02:23:07;2.30;;;1.77;;
58310;SDS011;45001;52.218;5.154;2022-08-19T02:25:32;2.00;;;1.65;;
58310;SDS011;45001;52.218;5.154;2022-08-19T02:27:58;2.00;;;1.80;;
58310;SDS011;45001;52.218;5.154;2022-08-19T02:30:23;2.35;;;1.92;;
58310;SDS011;45001;52.218;5.154;2022-08-19T02:32:49;2.72;;;1.63;;
58310;SDS011;45001;52.218;5.154;2022-08-19T02:35:15;2.70;;;1.85;;
58310;SDS011;45001;52.218;5.154;2022-08-19T02:37:41;2.22;;;1.80;;
58310;SDS011;45001;52.218;5.154;2022-08-19T02:40:26;1.95;;;1.70;;
58310;SDS011;45001;52.218;5.154;2022-08-19T02:42:52;3.33;;;2.00;;
58310;SDS011;45001;52.218;5.154;2022-08-19T02:45:17;2.72;;;2.00;;
58310;SDS011;45001;52.218;5.154;2022-08-19T02:47:43;3.90;;;2.05;;
58310;SDS011;45001;52.218;5.154;2022-08-19T02:50:08;2.25;;;1.70;;
58310;SDS011;45001;52.218;5.154;2022-08-19T02:52:34;1.92;;;1.73;;
58310;SDS011;45001;52.218;5.154;2022-08-19T02:54:59;2.03;;;1.70;;
58310;SDS011;45001;52.218;5.154;2022-08-19T02:57:25;2.45;;;1.80;;
58310;SDS011;45001;52.218;5.154;2022-08-19T02:59:51;2.22;;;1.77;;
58310;SDS011;45001;52.218;5.154;2022-08-19T03:02:17;2.63;;;1.95;;
58310;SDS011;45001;52.218;5.154;2022-08-19T03:04:42;2.30;;;1.90;;
58310;SDS011;45001;52.218;5.154;2022-08-19T03:07:08;2.63;;;1.95;;
58310;SDS011;45001;52.218;5.154;2022-08-19T03:09:35;2.67;;;1.80;;
58310;SDS011;45001;52.218;5.154;2022-08-19T03:12:02;2.30;;;2.10;;
58310;SDS011;45001;52.218;5.154;2022-08-19T03:14:29;2.05;;;1.85;;
58310;SDS011;45001;52.218;5.154;2022-08-19T03:16:55;2.40;;;1.80;;
58310;SDS011;45001;52.218;5.154;2022-08-19T03:19:21;2.25;;;1.92;;
58310;SDS011;45001;52.218;5.154;2022-08-19T03:21:46;2.72;;;1.90;;
58310;SDS011;45001;52.218;5.154;2022-08-19T03:24:12;2.08;;;1.88;;
58310;SDS011;45001;52.218;5.154;2022-08-19T03:26:43;2.28;;;1.75;;
58310;SDS011;45001;52.218;5.154;2022-08-19T03:29:10;2.92;;;2.20;;
58310;SDS011;45001;52.218;5.154;2022-08-19T03:31:36;2.25;;;1.98;;
58310;SDS011;45001;52.218;5.154;2022-08-19T03:34:03;2.42;;;1.88;;
58310;SDS011;45001;52.218;5.154;2022-08-19T03:36:29;2.55;;;1.80;;
58310;SDS011;45001;52.218;5.154;2022-08-19T03:38:56;2.20;;;1.90;;
58310;SDS011;45001;52.218;5.154;2022-08-19T03:41:24;2.42;;;2.20;;
58310;SDS011;45001;52.218;5.154;2022-08-19T03:43:56;2.10;;;1.77;;
58310;SDS011;45001;52.218;5.154;2022-08-19T03:46:23;2.58;;;2.20;;
58310;SDS011;45001;52.218;5.154;2022-08-19T03:48:51;2.85;;;2.20;;
58310;SDS011;45001;52.218;5.154;2022-08-19T03:51:25;2.40;;;2.20;;
58310;SDS011;45001;52.218;5.154;2022-08-19T03:53:54;2.70;;;2.05;;
58310;SDS011;45001;52.218;5.154;2022-08-19T03:56:21;2.38;;;2.17;;
58310;SDS011;45001;52.218;5.154;2022-08-19T03:58:46;3.50;;;2.25;;
58310;SDS011;45001;52.218;5.154;2022-08-19T04:01:14;2.28;;;1.98;;
58310;SDS011;45001;52.218;5.154;2022-08-19T04:03:42;2.50;;;2.20;;
58310;SDS011;45001;52.218;5.154;2022-08-19T04:06:09;2.70;;;2.20;;
58310;SDS011;45001;52.218;5.154;2022-08-19T04:08:37;2.70;;;2.28;;
58310;SDS011;45001;52.218;5.154;2022-08-19T04:11:06;3.05;;;2.40;;
58310;SDS011;45001;52.218;5.154;2022-08-19T04:13:32;3.00;;;2.10;;
58310;SDS011;45001;52.218;5.154;2022-08-19T04:15:58;2.67;;;2.17;;
58310;SDS011;45001;52.218;5.154;2022-08-19T04:18:24;3.40;;;2.63;;
58310;SDS011;45001;52.218;5.154;2022-08-19T04:20:50;2.05;;;1.83;;
58310;SDS011;45001;52.218;5.154;2022-08-19T04:23:15;3.15;;;2.42;;
58310;SDS011;45001;52.218;5.154;2022-08-19T04:25:42;3.28;;;2.47;;
58310;SDS011;45001;52.218;5.154;2022-08-19T04:28:09;2.78;;;2.22;;
58310;SDS011;45001;52.218;5.154;2022-08-19T04:30:37;3.72;;;2.67;;
58310;SDS011;45001;52.218;5.154;2022-08-19T04:33:13;3.00;;;2.03;;
58310;SDS011;45001;52.218;5.154;2022-08-19T04:35:41;2.47;;;2.28;;
58310;SDS011;45001;52.218;5.154;2022-08-19T04:38:08;2.70;;;2.17;;
58310;SDS011;45001;52.218;5.154;2022-08-19T04:40:39;2.85;;;2.53;;
58310;SDS011;45001;52.218;5.154;2022-08-19T04:43:27;2.70;;;2.20;;
58310;SDS011;45001;52.218;5.154;2022-08-19T04:45:53;5.70;;;2.85;;
58310;SDS011;45001;52.218;5.154;2022-08-19T04:48:19;3.38;;;2.65;;
58310;SDS011;45001;52.218;5.154;2022-08-19T04:50:51;3.13;;;2.60;;
58310;SDS011;45001;52.218;5.154;2022-08-19T04:53:22;3.55;;;2.42;;
58310;SDS011;45001;52.218;5.154;2022-08-19T04:55:53;3.03;;;2.72;;
58310;SDS011;45001;52.218;5.154;2022-08-19T05:00:49;3.10;;;2.58;;
58310;SDS011;45001;52.218;5.154;2022-08-19T05:03:14;3.47;;;2.70;;
58310;SDS011;45001;52.218;5.154;2022-08-19T05:05:42;4.68;;;2.70;;
58310;SDS011;45001;52.218;5.154;2022-08-19T05:08:09;3.20;;;2.38;;
58310;SDS011;45001;52.218;5.154;2022-08-19T05:10:35;2.90;;;2.38;;
58310;SDS011;45001;52.218;5.154;2022-08-19T05:13:02;3.47;;;2.80;;
58310;SDS011;45001;52.218;5.154;2022-08-19T05:15:28;2.92;;;2.63;;
58310;SDS011;45001;52.218;5.154;2022-08-19T05:17:53;3.60;;;3.05;;
58310;SDS011;45001;52.218;5.154;2022-08-19T05:20:37;3.85;;;3.10;;
58310;SDS011;45001;52.218;5.154;2022-08-19T05:23:21;3.60;;;3.13;;
58310;SDS011;45001;52.218;5.154;2022-08-19T05:25:47;3.75;;;3.33;;
58310;SDS011;45001;52.218;5.154;2022-08-19T05:28:12;3.38;;;2.55;;
58310;SDS011;45001;52.218;5.154;2022-08-19T05:30:37;4.93;;;3.13;;
58310;SDS011;45001;52.218;5.154;2022-08-19T05:33:03;4.07;;;3.47;;
58310;SDS011;45001;52.218;5.154;2022-08-19T05:35:28;4.05;;;3.20;;
58310;SDS011;45001;52.218;5.154;2022-08-19T05:37:53;6.40;;;4.65;;
58310;SDS011;45001;52.218;5.154;2022-08-19T05:40:19;8.07;;;6.00;;
58310;SDS011;45001;52.218;5.154;2022-08-19T05:42:44;8.82;;;7.20;;
58310;SDS011;45001;52.218;5.154;2022-08-19T05:45:10;12.43;;;7.32;;
58310;SDS011;45001;52.218;5.154;2022-08-19T05:47:36;10.45;;;8.10;;
58310;SDS011;45001;52.218;5.154;2022-08-19T05:50:02;11.82;;;9.05;;
58310;SDS011;45001;52.218;5.154;2022-08-19T05:52:28;16.52;;;10.20;;
58310;SDS011;45001;52.218;5.154;2022-08-19T05:54:54;14.98;;;10.85;;
58310;SDS011;45001;52.218;5.154;2022-08-19T05:57:20;14.98;;;11.18;;
58310;SDS011;45001;52.218;5.154;2022-08-19T05:59:46;15.38;;;11.80;;
58310;SDS011;45001;52.218;5.154;2022-08-19T06:02:13;19.15;;;12.27;;
58310;SDS011;45001;52.218;5.154;2022-08-19T06:04:39;17.98;;;12.45;;
58310;SDS011;45001;52.218;5.154;2022-08-19T06:07:07;16.77;;;12.17;;
58310;SDS011;45001;52.218;5.154;2022-08-19T06:09:33;20.38;;;13.95;;
58310;SDS011;45001;52.218;5.154;2022-08-19T06:11:58;18.25;;;13.30;;
58310;SDS011;45001;52.218;5.154;2022-08-19T06:14:26;19.58;;;12.98;;
58310;SDS011;45001;52.218;5.154;2022-08-19T06:16:54;20.88;;;13.85;;
58310;SDS011;45001;52.218;5.154;2022-08-19T06:19:20;19.42;;;14.15;;
58310;SDS011;45001;52.218;5.154;2022-08-19T06:21:48;20.17;;;15.15;;
58310;SDS011;45001;52.218;5.154;2022-08-19T06:24:17;21.30;;;15.13;;
58310;SDS011;45001;52.218;5.154;2022-08-19T06:26:44;20.63;;;13.30;;
58310;SDS011;45001;52.218;5.154;2022-08-19T06:29:12;18.10;;;12.23;;
58310;SDS011;45001;52.218;5.154;2022-08-19T06:31:41;16.73;;;11.90;;
58310;SDS011;45001;52.218;5.154;2022-08-19T06:34:08;20.50;;;12.07;;
58310;SDS011;45001;52.218;5.154;2022-08-19T06:36:55;21.30;;;12.63;;
58310;SDS011;45001;52.218;5.154;2022-08-19T06:39:22;19.13;;;12.50;;
58310;SDS011;45001;52.218;5.154;2022-08-19T06:41:50;19.45;;;12.07;;
58310;SDS011;45001;52.218;5.154;2022-08-19T06:44:18;18.67;;;11.32;;
58310;SDS011;45001;52.218;5.154;2022-08-19T06:46:45;16.40;;;10.60;;
58310;SDS011;45001;52.218;5.154;2022-08-19T06:49:11;20.75;;;12.02;;
58310;SDS011;45001;52.218;5.154;2022-08-19T06:51:39;19.75;;;11.85;;
58310;SDS011;45001;52.218;5.154;2022-08-19T06:54:06;24.90;;;13.80;;
58310;SDS011;45001;52.218;5.154;2022-08-19T06:56:32;28.20;;;14.05;;
58310;SDS011;45001;52.218;5.154;2022-08-19T06:59:03;29.67;;;15.38;;
58310;SDS011;45001;52.218;5.154;2022-08-19T07:01:33;22.23;;;14.00;;
58310;SDS011;45001;52.218;5.154;2022-08-19T07:04:06;23.90;;;14.15;;
58310;SDS011;45001;52.218;5.154;2022-08-19T07:06:34;25.67;;;11.95;;
58310;SDS011;45001;52.218;5.154;2022-08-19T07:09:02;18.95;;;11.35;;
58310;SDS011;45001;52.218;5.154;2022-08-19T07:11:29;18.47;;;11.83;;
58310;SDS011;45001;52.218;5.154;2022-08-19T07:13:55;24.27;;;12.80;;
58310;SDS011;45001;52.218;5.154;2022-08-19T07:16:21;17.77;;;11.65;;
58310;SDS011;45001;52.218;5.154;2022-08-19T07:18:47;19.25;;;11.90;;
58310;SDS011;45001;52.218;5.154;2022-08-19T07:21:15;16.75;;;11.82;;
58310;SDS011;45001;52.218;5.154;2022-08-19T07:26:11;39.30;;;22.35;;
58310;SDS011;45001;52.218;5.154;2022-08-19T07:28:39;43.50;;;24.50;;
58310;SDS011;45001;52.218;5.154;2022-08-19T07:31:07;44.28;;;25.85;;
58310;SDS011;45001;52.218;5.154;2022-08-19T07:33:35;46.05;;;26.63;;
58310;SDS011;45001;52.218;5.154;2022-08-19T07:36:02;45.42;;;27.38;;
58310;SDS011;45001;52.218;5.154;2022-08-19T07:38:32;45.67;;;28.40;;
58310;SDS011;45001;52.218;5.154;2022-08-19T07:40:58;47.88;;;28.65;;
58310;SDS011;45001;52.218;5.154;2022-08-19T07:43:24;50.78;;;29.50;;
58310;SDS011;45001;52.218;5.154;2022-08-19T07:45:51;50.60;;;30.42;;
58310;SDS011;45001;52.218;5.154;2022-08-19T07:48:25;49.25;;;29.85;;
58310;SDS011;45001;52.218;5.154;2022-08-19T07:50:55;49.33;;;27.77;;
58310;SDS011;45001;52.218;5.154;2022-08-19T07:53:23;43.13;;;28.27;;
58310;SDS011;45001;52.218;5.154;2022-08-19T07:55:49;46.78;;;28.73;;
58310;SDS011;45001;52.218;5.154;2022-08-19T07:58:15;46.08;;;30.00;;
58310;SDS011;45001;52.218;5.154;2022-08-19T08:00:44;47.85;;;30.85;;
58310;SDS011;45001;52.218;5.154;2022-08-19T08:03:11;44.42;;;29.52;;
58310;SDS011;45001;52.218;5.154;2022-08-19T08:05:38;40.08;;;27.05;;
58310;SDS011;45001;52.218;5.154;2022-08-19T08:08:22;39.42;;;25.60;;
58310;SDS011;45001;52.218;5.154;2022-08-19T08:10:56;35.30;;;24.27;;
58310;SDS011;45001;52.218;5.154;2022-08-19T08:13:21;33.28;;;23.52;;
58310;SDS011;45001;52.218;5.154;2022-08-19T08:15:47;36.40;;;23.63;;
58310;SDS011;45001;52.218;5.154;2022-08-19T08:18:12;34.15;;;23.48;;
58310;SDS011;45001;52.218;5.154;2022-08-19T08:20:38;30.70;;;20.70;;
58310;SDS011;45001;52.218;5.154;2022-08-19T08:23:03;20.20;;;14.55;;
58310;SDS011;45001;52.218;5.154;2022-08-19T08:25:47;30.35;;;19.40;;
58310;SDS011;45001;52.218;5.154;2022-08-19T08:28:13;26.42;;;17.10;;
58310;SDS011;45001;52.218;5.154;2022-08-19T08:30:39;23.13;;;16.60;;
58310;SDS011;45001;52.218;5.154;2022-08-19T08:33:07;22.20;;;15.60;;
58310;SDS011;45001;52.218;5.154;2022-08-19T08:35:32;23.40;;;15.93;;
58310;SDS011;45001;52.218;5.154;2022-08-19T08:37:58;18.98;;;14.35;;
58310;SDS011;45001;52.218;5.154;2022-08-19T08:43:27;17.60;;;13.90;;
58310;SDS011;45001;52.218;5.154;2022-08-19T08:46:03;21.45;;;15.02;;
58310;SDS011;45001;52.218;5.154;2022-08-19T08:51:02;19.73;;;14.32;;
58310;SDS011;45001;52.218;5.154;2022-08-19T08:55:56;13.88;;;12.38;;
58310;SDS011;45001;52.218;5.154;2022-08-19T08:58:27;15.38;;;12.65;;
58310;SDS011;45001;52.218;5.154;2022-08-19T09:00:57;14.98;;;12.38;;
58310;SDS011;45001;52.218;5.154;2022-08-19T09:03:25;17.13;;;12.93;;
58310;SDS011;45001;52.218;5.154;2022-08-19T09:08:37;15.52;;;12.25;;
58310;SDS011;45001;52.218;5.154;2022-08-19T09:11:10;14.60;;;11.95;;
58310;SDS011;45001;52.218;5.154;2022-08-19T09:13:52;15.68;;;12.55;;
58310;SDS011;45001;52.218;5.154;2022-08-19T09:16:26;17.98;;;12.80;;
58310;SDS011;45001;52.218;5.154;2022-08-19T09:18:54;14.80;;;12.45;;
58310;SDS011;45001;52.218;5.154;2022-08-19T09:21:23;14.93;;;12.25;;
58310;SDS011;45001;52.218;5.154;2022-08-19T09:23:50;14.23;;;12.40;;
58310;SDS011;45001;52.218;5.154;2022-08-19T09:26:17;17.23;;;13.25;;
58310;SDS011;45001;52.218;5.154;2022-08-19T09:28:45;14.45;;;12.35;;
58310;SDS011;45001;52.218;5.154;2022-08-19T09:31:13;17.35;;;12.60;;
58310;SDS011;45001;52.218;5.154;2022-08-19T09:33:43;16.75;;;12.63;;
58310;SDS011;45001;52.218;5.154;2022-08-19T09:36:11;16.13;;;12.70;;
58310;SDS011;45001;52.218;5.154;2022-08-19T09:38:38;14.93;;;13.33;;
58310;SDS011;45001;52.218;5.154;2022-08-19T09:41:08;12.95;;;11.45;;
58310;SDS011;45001;52.218;5.154;2022-08-19T09:43:37;16.38;;;13.13;;
58310;SDS011;45001;52.218;5.154;2022-08-19T09:46:05;14.38;;;11.75;;
58310;SDS011;45001;52.218;5.154;2022-08-19T09:48:33;13.68;;;11.73;;
58310;SDS011;45001;52.218;5.154;2022-08-19T09:51:06;13.82;;;11.73;;
58310;SDS011;45001;52.218;5.154;2022-08-19T09:53:34;14.52;;;12.23;;
58310;SDS011;45001;52.218;5.154;2022-08-19T09:56:00;14.48;;;12.00;;
58310;SDS011;45001;52.218;5.154;2022-08-19T09:58:26;13.35;;;10.95;;
58310;SDS011;45001;52.218;5.154;2022-08-19T10:00:57;17.02;;;11.70;;
58310;SDS011;45001;52.218;5.154;2022-08-19T10:03:23;13.60;;;11.27;;
58310;SDS011;45001;52.218;5.154;2022-08-19T10:05:49;13.68;;;11.38;;
58310;SDS011;45001;52.218;5.154;2022-08-19T10:08:17;13.13;;;11.73;;
58310;SDS011;45001;52.218;5.154;2022-08-19T10:10:53;14.95;;;11.35;;
58310;SDS011;45001;52.218;5.154;2022-08-19T10:13:20;12.73;;;11.13;;
58310;SDS011;45001;52.218;5.154;2022-08-19T10:15:50;13.68;;;11.73;;
58310;SDS011;45001;52.218;5.154;2022-08-19T10:18:18;14.57;;;11.77;;
58310;SDS011;45001;52.218;5.154;2022-08-19T10:20:47;12.25;;;10.57;;
58310;SDS011;45001;52.218;5.154;2022-08-19T10:23:14;11.77;;;10.57;;
58310;SDS011;45001;52.218;5.154;2022-08-19T10:25:41;13.15;;;11.10;;
58310;SDS011;45001;52.218;5.154;2022-08-19T10:28:07;12.15;;;10.85;;
58310;SDS011;45001;52.218;5.154;2022-08-19T10:30:34;14.38;;;11.90;;
58310;SDS011;45001;52.218;5.154;2022-08-19T10:33:00;12.98;;;11.50;;
58310;SDS011;45001;52.218;5.154;2022-08-19T10:35:26;13.68;;;11.70;;
58310;SDS011;45001;52.218;5.154;2022-08-19T10:37:53;15.75;;;11.70;;
58310;SDS011;45001;52.218;5.154;2022-08-19T10:40:18;13.98;;;12.10;;
58310;SDS011;45001;52.218;5.154;2022-08-19T10:42:44;14.75;;;11.13;;
58310;SDS011;45001;52.218;5.154;2022-08-19T10:45:09;14.57;;;11.20;;
58310;SDS011;45001;52.218;5.154;2022-08-19T10:47:35;13.88;;;11.15;;
58310;SDS011;45001;52.218;5.154;2022-08-19T10:50:01;12.40;;;11.07;;
58310;SDS011;45001;52.218;5.154;2022-08-19T10:52:47;12.85;;;10.85;;
58310;SDS011;45001;52.218;5.154;2022-08-19T10:55:14;12.50;;;11.20;;
58310;SDS011;45001;52.218;5.154;2022-08-19T10:57:58;12.43;;;11.18;;
58310;SDS011;45001;52.218;5.154;2022-08-19T11:00:23;12.85;;;10.65;;
58310;SDS011;45001;52.218;5.154;2022-08-19T11:02:50;14.50;;;10.98;;
58310;SDS011;45001;52.218;5.154;2022-08-19T11:05:15;13.73;;;10.95;;
58310;SDS011;45001;52.218;5.154;2022-08-19T11:07:42;11.57;;;10.35;;
58310;SDS011;45001;52.218;5.154;2022-08-19T11:10:09;11.93;;;10.27;;
58310;SDS011;45001;52.218;5.154;2022-08-19T11:12:36;12.20;;;10.85;;
58310;SDS011;45001;52.218;5.154;2022-08-19T11:15:04;14.57;;;11.10;;
58310;SDS011;45001;52.218;5.154;2022-08-19T11:17:33;11.13;;;10.02;;
58310;SDS011;45001;52.218;5.154;2022-08-19T11:19:59;12.02;;;10.27;;
58310;SDS011;45001;52.218;5.154;2022-08-19T11:22:28;11.52;;;9.88;;
58310;SDS011;45001;52.218;5.154;2022-08-19T11:24:53;11.30;;;10.20;;
58310;SDS011;45001;52.218;5.154;2022-08-19T11:27:20;11.95;;;10.18;;
58310;SDS011;45001;52.218;5.154;2022-08-19T11:29:45;11.20;;;9.05;;
58310;SDS011;45001;52.218;5.154;2022-08-19T11:32:10;10.55;;;9.55;;
58310;SDS011;45001;52.218;5.154;2022-08-19T11:34:36;11.68;;;10.23;;
58310;SDS011;45001;52.218;5.154;2022-08-19T11:37:02;10.65;;;9.65;;
58310;SDS011;45001;52.218;5.154;2022-08-19T11:39:29;11.45;;;9.82;;
58310;SDS011;45001;52.218;5.154;2022-08-19T11:41:59;10.80;;;9.68;;
58310;SDS011;45001;52.218;5.154;2022-08-19T11:44:26;11.82;;;10.63;;
58310;SDS011;45001;52.218;5.154;2022-08-19T11:46:55;11.20;;;8.73;;
58310;SDS011;45001;52.218;5.154;2022-08-19T11:49:21;10.38;;;8.98;;
58310;SDS011;45001;52.218;5.154;2022-08-19T11:51:46;12.25;;;11.00;;
58310;SDS011;45001;52.218;5.154;2022-08-19T11:54:13;11.48;;;9.88;;
58310;SDS011;45001;52.218;5.154;2022-08-19T11:56:40;12.32;;;10.05;;
58310;SDS011;45001;52.218;5.154;2022-08-19T11:59:05;12.98;;;11.63;;
58310;SDS011;45001;52.218;5.154;2022-08-19T12:01:32;12.55;;;10.48;;
58310;SDS011;45001;52.218;5.154;2022-08-19T12:03:59;13.38;;;9.73;;
58310;SDS011;45001;52.218;5.154;2022-08-19T12:06:29;14.02;;;11.00;;
58310;SDS011;45001;52.218;5.154;2022-08-19T12:08:57;15.95;;;10.48;;
58310;SDS011;45001;52.218;5.154;2022-08-19T12:11:23;12.80;;;9.95;;
58310;SDS011;45001;52.218;5.154;2022-08-19T12:13:50;12.40;;;10.65;;
58310;SDS011;45001;52.218;5.154;2022-08-19T12:16:26;16.63;;;9.40;;
58310;SDS011;45001;52.218;5.154;2022-08-19T12:18:54;12.43;;;10.10;;
58310;SDS011;45001;52.218;5.154;2022-08-19T12:21:24;11.27;;;9.32;;
58310;SDS011;45001;52.218;5.154;2022-08-19T12:23:54;10.55;;;9.05;;
58310;SDS011;45001;52.218;5.154;2022-08-19T12:26:22;9.98;;;8.98;;
58310;SDS011;45001;52.218;5.154;2022-08-19T12:28:47;12.90;;;9.45;;
58310;SDS011;45001;52.218;5.154;2022-08-19T12:31:13;12.20;;;8.40;;
58310;SDS011;45001;52.218;5.154;2022-08-19T12:33:39;13.77;;;8.70;;
58310;SDS011;45001;52.218;5.154;2022-08-19T12:36:06;11.73;;;8.23;;
58310;SDS011;45001;52.218;5.154;2022-08-19T12:38:34;12.18;;;8.13;;
58310;SDS011;45001;52.218;5.154;2022-08-19T12:41:00;12.25;;;8.13;;
58310;SDS011;45001;52.218;5.154;2022-08-19T12:43:25;11.63;;;7.53;;
58310;SDS011;45001;52.218;5.154;2022-08-19T12:45:51;9.27;;;6.90;;
58310;SDS011;45001;52.218;5.154;2022-08-19T12:48:16;8.33;;;6.40;;
58310;SDS011;45001;52.218;5.154;2022-08-19T12:50:44;10.43;;;6.15;;
58310;SDS011;45001;52.218;5.154;2022-08-19T12:53:13;10.77;;;6.00;;
58310;SDS011;45001;52.218;5.154;2022-08-19T12:55:39;8.38;;;6.07;;
58310;SDS011;45001;52.218;5.154;2022-08-19T12:58:05;7.72;;;5.82;;
58310;SDS011;45001;52.218;5.154;2022-08-19T13:00:30;8.23;;;6.03;;
58310;SDS011;45001;52.218;5.154;2022-08-19T13:02:57;7.97;;;5.80;;
58310;SDS011;45001;52.218;5.154;2022-08-19T13:05:24;8.48;;;5.82;;
58310;SDS011;45001;52.218;5.154;2022-08-19T13:07:52;8.30;;;5.72;;
58310;SDS011;45001;52.218;5.154;2022-08-19T13:10:21;9.60;;;5.47;;
58310;SDS011;45001;52.218;5.154;2022-08-19T13:12:48;7.05;;;5.10;;
58310;SDS011;45001;52.218;5.154;2022-08-19T13:15:16;8.15;;;5.30;;
58310;SDS011;45001;52.218;5.154;2022-08-19T13:17:45;8.10;;;5.53;;
58310;SDS011;45001;52.218;5.154;2022-08-19T13:20:14;7.50;;;4.87;;
58310;SDS011;45001;52.218;5.154;2022-08-19T13:22:40;6.68;;;4.95;;
58310;SDS011;45001;52.218;5.154;2022-08-19T13:25:06;7.25;;;5.80;;
58310;SDS011;45001;52.218;5.154;2022-08-19T13:27:31;6.93;;;5.20;;
58310;SDS011;45001;52.218;5.154;2022-08-19T13:29:57;6.57;;;5.38;;
58310;SDS011;45001;52.218;5.154;2022-08-19T13:32:44;8.75;;;5.80;;
58310;SDS011;45001;52.218;5.154;2022-08-19T13:35:28;8.20;;;5.25;;
58310;SDS011;45001;52.218;5.154;2022-08-19T13:37:53;6.22;;;5.25;;
58310;SDS011;45001;52.218;5.154;2022-08-19T13:40:20;6.45;;;4.88;;
58310;SDS011;45001;52.218;5.154;2022-08-19T13:42:49;9.27;;;5.07;;
58310;SDS011;45001;52.218;5.154;2022-08-19T13:45:21;7.90;;;5.20;;
58310;SDS011;45001;52.218;5.154;2022-08-19T13:47:49;6.85;;;4.85;;
58310;SDS011;45001;52.218;5.154;2022-08-19T13:50:18;6.72;;;6.03;;
58310;SDS011;45001;52.218;5.154;2022-08-19T13:52:46;6.40;;;5.20;;
58310;SDS011;45001;52.218;5.154;2022-08-19T13:55:12;6.60;;;5.40;;
58310;SDS011;45001;52.218;5.154;2022-08-19T13:57:39;8.90;;;5.50;;
58310;SDS011;45001;52.218;5.154;2022-08-19T14:00:06;7.20;;;5.18;;
58310;SDS011;45001;52.218;5.154;2022-08-19T14:02:35;6.95;;;4.82;;
58310;SDS011;45001;52.218;5.154;2022-08-19T14:05:02;6.32;;;4.75;;
58310;SDS011;45001;52.218;5.154;2022-08-19T14:07:29;5.65;;;4.32;;
58310;SDS011;45001;52.218;5.154;2022-08-19T14:09:55;5.75;;;4.32;;
58310;SDS011;45001;52.218;5.154;2022-08-19T14:12:20;5.20;;;3.72;;
58310;SDS011;45001;52.218;5.154;2022-08-19T14:14:46;4.75;;;3.60;;
58310;SDS011;45001;52.218;5.154;2022-08-19T14:17:12;4.65;;;3.50;;
58310;SDS011;45001;52.218;5.154;2022-08-19T14:19:38;4.72;;;3.40;;
58310;SDS011;45001;52.218;5.154;2022-08-19T14:22:03;4.30;;;3.50;;
58310;SDS011;45001;52.218;5.154;2022-08-19T14:24:30;4.55;;;3.60;;
58310;SDS011;45001;52.218;5.154;2022-08-19T14:26:55;5.50;;;3.60;;
58310;SDS011;45001;52.218;5.154;2022-08-19T14:29:22;5.93;;;3.97;;
58310;SDS011;45001;52.218;5.154;2022-08-19T14:31:47;5.75;;;3.70;;
58310;SDS011;45001;52.218;5.154;2022-08-19T14:34:13;4.90;;;3.35;;
58310;SDS011;45001;52.218;5.154;2022-08-19T14:36:38;4.30;;;3.40;;
58310;SDS011;45001;52.218;5.154;2022-08-19T14:39:04;4.07;;;3.30;;
58310;SDS011;45001;52.218;5.154;2022-08-19T14:41:29;4.57;;;3.33;;
58310;SDS011;45001;52.218;5.154;2022-08-19T14:43:55;3.78;;;3.22;;
58310;SDS011;45001;52.218;5.154;2022-08-19T14:46:22;5.03;;;3.60;;
58310;SDS011;45001;52.218;5.154;2022-08-19T14:48:50;3.95;;;3.20;;
58310;SDS011;45001;52.218;5.154;2022-08-19T14:51:15;5.18;;;3.35;;
58310;SDS011;45001;52.218;5.154;2022-08-19T14:53:41;4.97;;;3.92;;
58310;SDS011;45001;52.218;5.154;2022-08-19T14:56:10;5.70;;;3.58;;
58310;SDS011;45001;52.218;5.154;2022-08-19T14:58:38;3.97;;;3.40;;